sensor_id;sensor_type;location;lat;lon;timestamp;temperature;humidity
8475;DHT22;4274;52.012;8.448;2024-02-21T00:02:03;7.90;99.90
8475;DHT22;4274;52.012;8.448;2024-02-21T00:04:29;8.00;99.90
8475;DHT22;4274;52.012;8.448;2024-02-21T00:06:55;8.00;99.90
8475;DHT22;4274;52.012;8.448;2024-02-21T00:09:20;7.90;99.90
8475;DHT22;4274;52.012;8.448;2024-02-21T00:11:46;8.00;99.90
8475;DHT22;4274;52.012;8.448;2024-02-21T00:14:13;8.00;99.90
8475;DHT22;4274;52.012;8.448;2024-02-21T00:16:38;7.90;99.90
8475;DHT22;4274;52.012;8.448;2024-02-21T00:19:04;8.00;99.90
8475;DHT22;4274;52.012;8.448;2024-02-21T00:21:29;7.90;99.90
8475;DHT22;4274;52.012;8.448;2024-02-21T00:23:55;8.00;99.90
8475;DHT22;4274;52.012;8.448;2024-02-21T00:26:21;7.90;99.90
8475;DHT22;4274;52.012;8.448;2024-02-21T00:28:46;8.00;99.90
8475;DHT22;4274;52.012;8.448;2024-02-21T00:31:12;8.00;99.90
8475;DHT22;4274;52.012;8.448;2024-02-21T00:33:37;8.00;99.90
8475;DHT22;4274;52.012;8.448;2024-02-21T00:36:03;7.90;99.90
8475;DHT22;4274;52.012;8.448;2024-02-21T00:38:29;8.00;99.90
8475;DHT22;4274;52.012;8.448;2024-02-21T00:40:54;8.00;99.90
8475;DHT22;4274;52.012;8.448;2024-02-21T00:43:20;8.00;99.90
8475;DHT22;4274;52.012;8.448;2024-02-21T00:45:49;8.00;99.90
8475;DHT22;4274;52.012;8.448;2024-02-21T00:48:14;8.00;99.90
8475;DHT22;4274;52.012;8.448;2024-02-21T00:50:40;7.90;99.90
8475;DHT22;4274;52.012;8.448;2024-02-21T00:53:06;7.90;99.90
8475;DHT22;4274;52.012;8.448;2024-02-21T00:55:31;7.90;99.90
8475;DHT22;4274;52.012;8.448;2024-02-21T00:57:57;7.90;99.90
8475;DHT22;4274;52.012;8.448;2024-02-21T01:00:22;7.90;99.90
8475;DHT22;4274;52.012;8.448;2024-02-21T01:02:48;7.90;99.90
8475;DHT22;4274;52.012;8.448;2024-02-21T01:05:14;7.90;99.90
8475;DHT22;4274;52.012;8.448;2024-02-21T01:07:39;8.00;99.90
8475;DHT22;4274;52.012;8.448;2024-02-21T01:10:06;8.00;99.90
8475;DHT22;4274;52.012;8.448;2024-02-21T01:12:31;8.00;99.90
8475;DHT22;4274;52.012;8.448;2024-02-21T01:14:57;8.00;99.90
8475;DHT22;4274;52.012;8.448;2024-02-21T01:17:22;8.00;99.90
8475;DHT22;4274;52.012;8.448;2024-02-21T01:19:48;8.00;99.90
8475;DHT22;4274;52.012;8.448;2024-02-21T01:22:14;8.00;99.90
8475;DHT22;4274;52.012;8.448;2024-02-21T01:24:41;8.00;99.90
8475;DHT22;4274;52.012;8.448;2024-02-21T01:27:06;8.00;99.90
8475;DHT22;4274;52.012;8.448;2024-02-21T01:29:32;8.00;99.90
8475;DHT22;4274;52.012;8.448;2024-02-21T01:31:58;8.00;99.90
8475;DHT22;4274;52.012;8.448;2024-02-21T01:34:23;8.00;99.90
8475;DHT22;4274;52.012;8.448;2024-02-21T01:36:49;8.00;99.90
8475;DHT22;4274;52.012;8.448;2024-02-21T01:39:15;7.90;99.90
8475;DHT22;4274;52.012;8.448;2024-02-21T01:41:41;8.00;99.90
8475;DHT22;4274;52.012;8.448;2024-02-21T01:44:06;8.00;99.90
8475;DHT22;4274;52.012;8.448;2024-02-21T01:46:32;8.00;99.90
8475;DHT22;4274;52.012;8.448;2024-02-21T01:48:58;8.00;99.90
8475;DHT22;4274;52.012;8.448;2024-02-21T01:51:24;8.00;99.90
8475;DHT22;4274;52.012;8.448;2024-02-21T01:53:51;8.00;99.90
8475;DHT22;4274;52.012;8.448;2024-02-21T01:56:17;8.00;99.90
8475;DHT22;4274;52.012;8.448;2024-02-21T01:58:43;8.00;99.90
8475;DHT22;4274;52.012;8.448;2024-02-21T02:01:10;8.10;99.90
8475;DHT22;4274;52.012;8.448;2024-02-21T02:03:36;8.00;99.90
8475;DHT22;4274;52.012;8.448;2024-02-21T02:06:02;8.00;99.90
8475;DHT22;4274;52.012;8.448;2024-02-21T02:08:27;8.00;99.90
8475;DHT22;4274;52.012;8.448;2024-02-21T02:10:53;8.00;99.90
8475;DHT22;4274;52.012;8.448;2024-02-21T02:13:19;8.00;99.90
8475;DHT22;4274;52.012;8.448;2024-02-21T02:15:46;8.00;99.90
8475;DHT22;4274;52.012;8.448;2024-02-21T02:18:14;8.00;99.90
8475;DHT22;4274;52.012;8.448;2024-02-21T02:20:39;8.00;99.90
8475;DHT22;4274;52.012;8.448;2024-02-21T02:23:09;8.00;99.90
8475;DHT22;4274;52.012;8.448;2024-02-21T02:25:35;8.00;99.90
8475;DHT22;4274;52.012;8.448;2024-02-21T02:28:02;8.00;99.90
8475;DHT22;4274;52.012;8.448;2024-02-21T02:53:45;7.90;99.90
8475;DHT22;4274;52.012;8.448;2024-02-21T02:56:15;8.00;99.90
8475;DHT22;4274;52.012;8.448;2024-02-21T02:58:42;8.00;99.90
8475;DHT22;4274;52.012;8.448;2024-02-21T03:01:07;8.00;99.90
8475;DHT22;4274;52.012;8.448;2024-02-21T03:03:33;8.00;99.90
8475;DHT22;4274;52.012;8.448;2024-02-21T03:05:58;8.00;99.90
8475;DHT22;4274;52.012;8.448;2024-02-21T03:08:24;8.00;99.90
8475;DHT22;4274;52.012;8.448;2024-02-21T03:10:50;8.00;99.90
8475;DHT22;4274;52.012;8.448;2024-02-21T03:13:15;8.00;99.90
8475;DHT22;4274;52.012;8.448;2024-02-21T03:15:41;8.00;99.90
8475;DHT22;4274;52.012;8.448;2024-02-21T03:18:06;8.00;99.90
8475;DHT22;4274;52.012;8.448;2024-02-21T03:20:32;8.00;99.90
8475;DHT22;4274;52.012;8.448;2024-02-21T03:22:58;8.00;99.90
8475;DHT22;4274;52.012;8.448;2024-02-21T03:25:23;8.00;99.90
8475;DHT22;4274;52.012;8.448;2024-02-21T03:27:49;8.00;99.90
8475;DHT22;4274;52.012;8.448;2024-02-21T03:30:15;8.00;99.90
8475;DHT22;4274;52.012;8.448;2024-02-21T03:32:40;8.00;99.90
8475;DHT22;4274;52.012;8.448;2024-02-21T03:35:06;8.00;99.90
8475;DHT22;4274;52.012;8.448;2024-02-21T03:37:31;8.00;99.90
8475;DHT22;4274;52.012;8.448;2024-02-21T03:39:57;8.00;99.90
8475;DHT22;4274;52.012;8.448;2024-02-21T03:42:23;8.00;99.90
8475;DHT22;4274;52.012;8.448;2024-02-21T03:44:48;8.00;99.90
8475;DHT22;4274;52.012;8.448;2024-02-21T03:47:14;8.00;99.90
8475;DHT22;4274;52.012;8.448;2024-02-21T03:49:39;8.00;99.90
8475;DHT22;4274;52.012;8.448;2024-02-21T03:52:05;8.00;99.90
8475;DHT22;4274;52.012;8.448;2024-02-21T03:54:30;8.10;99.90
8475;DHT22;4274;52.012;8.448;2024-02-21T03:56:56;8.10;99.90
8475;DHT22;4274;52.012;8.448;2024-02-21T03:59:22;8.00;99.90
8475;DHT22;4274;52.012;8.448;2024-02-21T04:01:52;8.00;99.90
8475;DHT22;4274;52.012;8.448;2024-02-21T04:04:18;8.00;99.90
8475;DHT22;4274;52.012;8.448;2024-02-21T04:06:48;8.00;99.90
8475;DHT22;4274;52.012;8.448;2024-02-21T04:09:14;8.00;99.90
8475;DHT22;4274;52.012;8.448;2024-02-21T04:11:39;8.00;99.90
8475;DHT22;4274;52.012;8.448;2024-02-21T04:14:05;8.00;99.90
8475;DHT22;4274;52.012;8.448;2024-02-21T04:16:30;8.00;99.90
8475;DHT22;4274;52.012;8.448;2024-02-21T04:18:56;8.00;99.90
8475;DHT22;4274;52.012;8.448;2024-02-21T04:21:21;8.00;99.90
8475;DHT22;4274;52.012;8.448;2024-02-21T04:23:47;8.10;99.90
8475;DHT22;4274;52.012;8.448;2024-02-21T04:26:12;8.10;99.90
8475;DHT22;4274;52.012;8.448;2024-02-21T04:28:38;8.10;99.90
8475;DHT22;4274;52.012;8.448;2024-02-21T04:31:03;8.10;99.90
8475;DHT22;4274;52.012;8.448;2024-02-21T04:33:29;8.10;99.90
8475;DHT22;4274;52.012;8.448;2024-02-21T04:35:55;8.10;99.90
8475;DHT22;4274;52.012;8.448;2024-02-21T04:38:20;8.00;99.90
8475;DHT22;4274;52.012;8.448;2024-02-21T04:40:46;8.10;99.90
8475;DHT22;4274;52.012;8.448;2024-02-21T04:43:12;8.10;99.90
8475;DHT22;4274;52.012;8.448;2024-02-21T04:45:37;8.00;99.90
8475;DHT22;4274;52.012;8.448;2024-02-21T04:48:03;8.00;99.90
8475;DHT22;4274;52.012;8.448;2024-02-21T04:50:29;8.10;99.90
8475;DHT22;4274;52.012;8.448;2024-02-21T04:52:54;8.10;99.90
8475;DHT22;4274;52.012;8.448;2024-02-21T04:55:20;8.00;99.90
8475;DHT22;4274;52.012;8.448;2024-02-21T04:57:45;8.10;99.90
8475;DHT22;4274;52.012;8.448;2024-02-21T05:00:11;8.10;99.90
8475;DHT22;4274;52.012;8.448;2024-02-21T05:02:37;8.10;99.90
8475;DHT22;4274;52.012;8.448;2024-02-21T05:05:03;8.00;99.90
8475;DHT22;4274;52.012;8.448;2024-02-21T05:07:28;8.00;99.90
8475;DHT22;4274;52.012;8.448;2024-02-21T05:09:54;8.00;99.90
8475;DHT22;4274;52.012;8.448;2024-02-21T05:12:19;8.00;99.90
8475;DHT22;4274;52.012;8.448;2024-02-21T05:14:46;8.00;99.90
8475;DHT22;4274;52.012;8.448;2024-02-21T05:17:12;8.00;99.90
8475;DHT22;4274;52.012;8.448;2024-02-21T05:19:37;7.90;99.90
8475;DHT22;4274;52.012;8.448;2024-02-21T05:22:03;7.90;99.90
8475;DHT22;4274;52.012;8.448;2024-02-21T05:24:29;7.90;99.90
8475;DHT22;4274;52.012;8.448;2024-02-21T05:26:55;7.90;99.90
8475;DHT22;4274;52.012;8.448;2024-02-21T05:29:21;7.80;99.90
8475;DHT22;4274;52.012;8.448;2024-02-21T05:34:19;7.80;99.90
8475;DHT22;4274;52.012;8.448;2024-02-21T05:36:45;7.70;99.90
8475;DHT22;4274;52.012;8.448;2024-02-21T05:39:11;7.70;99.90
8475;DHT22;4274;52.012;8.448;2024-02-21T05:41:36;7.70;99.90
8475;DHT22;4274;52.012;8.448;2024-02-21T05:44:02;7.70;99.90
8475;DHT22;4274;52.012;8.448;2024-02-21T05:46:28;7.70;99.90
8475;DHT22;4274;52.012;8.448;2024-02-21T05:48:54;7.70;99.90
8475;DHT22;4274;52.012;8.448;2024-02-21T05:51:19;7.70;99.90
8475;DHT22;4274;52.012;8.448;2024-02-21T05:53:45;7.60;99.90
8475;DHT22;4274;52.012;8.448;2024-02-21T05:56:11;7.70;99.90
8475;DHT22;4274;52.012;8.448;2024-02-21T05:58:37;7.70;99.90
8475;DHT22;4274;52.012;8.448;2024-02-21T06:01:03;7.70;99.90
8475;DHT22;4274;52.012;8.448;2024-02-21T06:03:29;7.70;99.90
8475;DHT22;4274;52.012;8.448;2024-02-21T06:05:55;7.70;99.90
8475;DHT22;4274;52.012;8.448;2024-02-21T06:08:20;7.70;99.90
8475;DHT22;4274;52.012;8.448;2024-02-21T06:10:46;7.70;99.90
8475;DHT22;4274;52.012;8.448;2024-02-21T06:13:12;7.70;99.90
8475;DHT22;4274;52.012;8.448;2024-02-21T06:15:38;7.80;99.90
8475;DHT22;4274;52.012;8.448;2024-02-21T06:18:03;7.80;99.90
8475;DHT22;4274;52.012;8.448;2024-02-21T06:20:29;7.80;99.90
8475;DHT22;4274;52.012;8.448;2024-02-21T06:22:55;7.80;99.90
8475;DHT22;4274;52.012;8.448;2024-02-21T06:25:20;7.80;99.90
8475;DHT22;4274;52.012;8.448;2024-02-21T06:27:46;7.80;99.90
8475;DHT22;4274;52.012;8.448;2024-02-21T06:30:12;7.80;99.90
8475;DHT22;4274;52.012;8.448;2024-02-21T06:32:37;7.80;99.90
8475;DHT22;4274;52.012;8.448;2024-02-21T06:35:04;7.80;99.90
8475;DHT22;4274;52.012;8.448;2024-02-21T06:37:30;7.80;99.90
8475;DHT22;4274;52.012;8.448;2024-02-21T06:39:57;7.80;99.90
8475;DHT22;4274;52.012;8.448;2024-02-21T06:42:24;7.70;99.90
8475;DHT22;4274;52.012;8.448;2024-02-21T06:44:50;7.80;99.90
8475;DHT22;4274;52.012;8.448;2024-02-21T06:47:15;7.80;99.90
8475;DHT22;4274;52.012;8.448;2024-02-21T06:49:41;7.90;99.90
8475;DHT22;4274;52.012;8.448;2024-02-21T06:52:07;7.80;99.90
8475;DHT22;4274;52.012;8.448;2024-02-21T06:54:33;7.90;99.90
8475;DHT22;4274;52.012;8.448;2024-02-21T06:56:58;7.90;99.90
8475;DHT22;4274;52.012;8.448;2024-02-21T06:59:24;7.90;99.90
8475;DHT22;4274;52.012;8.448;2024-02-21T07:01:54;7.90;99.90
8475;DHT22;4274;52.012;8.448;2024-02-21T07:04:21;7.90;99.90
8475;DHT22;4274;52.012;8.448;2024-02-21T07:06:46;7.90;99.90
8475;DHT22;4274;52.012;8.448;2024-02-21T07:09:12;7.90;99.90
8475;DHT22;4274;52.012;8.448;2024-02-21T07:11:37;7.90;99.90
8475;DHT22;4274;52.012;8.448;2024-02-21T07:14:03;7.90;99.90
8475;DHT22;4274;52.012;8.448;2024-02-21T07:16:28;8.00;99.90
8475;DHT22;4274;52.012;8.448;2024-02-21T07:18:55;8.00;99.90
8475;DHT22;4274;52.012;8.448;2024-02-21T07:21:20;8.00;99.90
8475;DHT22;4274;52.012;8.448;2024-02-21T07:23:46;8.00;99.90
8475;DHT22;4274;52.012;8.448;2024-02-21T07:26:12;8.00;99.90
8475;DHT22;4274;52.012;8.448;2024-02-21T07:28:37;8.00;99.90
8475;DHT22;4274;52.012;8.448;2024-02-21T07:31:03;8.00;99.90
8475;DHT22;4274;52.012;8.448;2024-02-21T07:33:28;8.10;99.90
8475;DHT22;4274;52.012;8.448;2024-02-21T07:35:56;8.10;99.90
8475;DHT22;4274;52.012;8.448;2024-02-21T07:38:22;8.10;99.90
8475;DHT22;4274;52.012;8.448;2024-02-21T07:40:47;8.10;99.90
8475;DHT22;4274;52.012;8.448;2024-02-21T07:43:13;8.20;99.90
8475;DHT22;4274;52.012;8.448;2024-02-21T07:45:39;8.20;99.90
8475;DHT22;4274;52.012;8.448;2024-02-21T07:48:05;8.10;99.90
8475;DHT22;4274;52.012;8.448;2024-02-21T07:50:31;8.20;99.90
8475;DHT22;4274;52.012;8.448;2024-02-21T07:52:57;8.30;99.90
8475;DHT22;4274;52.012;8.448;2024-02-21T07:55:23;8.30;99.90
8475;DHT22;4274;52.012;8.448;2024-02-21T07:57:48;8.30;99.90
8475;DHT22;4274;52.012;8.448;2024-02-21T08:00:15;8.40;99.90
8475;DHT22;4274;52.012;8.448;2024-02-21T08:02:50;8.40;99.90
8475;DHT22;4274;52.012;8.448;2024-02-21T08:05:16;8.40;99.90
8475;DHT22;4274;52.012;8.448;2024-02-21T08:07:42;8.40;99.90
8475;DHT22;4274;52.012;8.448;2024-02-21T08:10:08;8.50;99.90
8475;DHT22;4274;52.012;8.448;2024-02-21T08:12:34;8.50;99.90
8475;DHT22;4274;52.012;8.448;2024-02-21T08:15:00;8.50;99.90
8475;DHT22;4274;52.012;8.448;2024-02-21T08:17:25;8.50;99.90
8475;DHT22;4274;52.012;8.448;2024-02-21T08:19:51;8.50;99.90
8475;DHT22;4274;52.012;8.448;2024-02-21T08:22:17;8.60;99.90
8475;DHT22;4274;52.012;8.448;2024-02-21T08:24:42;8.60;99.90
8475;DHT22;4274;52.012;8.448;2024-02-21T08:27:08;8.60;99.90
8475;DHT22;4274;52.012;8.448;2024-02-21T08:29:34;8.70;99.90
8475;DHT22;4274;52.012;8.448;2024-02-21T08:31:59;8.70;99.90
8475;DHT22;4274;52.012;8.448;2024-02-21T08:34:25;8.70;99.90
8475;DHT22;4274;52.012;8.448;2024-02-21T08:36:51;8.80;99.90
8475;DHT22;4274;52.012;8.448;2024-02-21T08:39:16;8.90;99.90
8475;DHT22;4274;52.012;8.448;2024-02-21T08:41:42;9.00;99.90
8475;DHT22;4274;52.012;8.448;2024-02-21T08:44:08;9.10;99.90
8475;DHT22;4274;52.012;8.448;2024-02-21T08:46:33;9.20;99.90
8475;DHT22;4274;52.012;8.448;2024-02-21T08:48:59;9.30;99.90
8475;DHT22;4274;52.012;8.448;2024-02-21T08:51:25;9.40;99.90
8475;DHT22;4274;52.012;8.448;2024-02-21T08:53:50;9.40;99.90
8475;DHT22;4274;52.012;8.448;2024-02-21T08:56:17;9.50;99.90
8475;DHT22;4274;52.012;8.448;2024-02-21T08:58:43;9.60;99.90
8475;DHT22;4274;52.012;8.448;2024-02-21T09:01:10;9.70;99.90
8475;DHT22;4274;52.012;8.448;2024-02-21T09:03:39;9.80;99.90
8475;DHT22;4274;52.012;8.448;2024-02-21T09:06:06;9.80;99.90
8475;DHT22;4274;52.012;8.448;2024-02-21T09:08:32;9.80;99.90
8475;DHT22;4274;52.012;8.448;2024-02-21T09:10:59;9.80;99.90
8475;DHT22;4274;52.012;8.448;2024-02-21T09:13:24;9.80;99.90
8475;DHT22;4274;52.012;8.448;2024-02-21T09:15:50;9.80;99.90
8475;DHT22;4274;52.012;8.448;2024-02-21T09:18:16;9.80;99.90
8475;DHT22;4274;52.012;8.448;2024-02-21T09:20:42;9.80;99.90
8475;DHT22;4274;52.012;8.448;2024-02-21T09:23:08;9.80;99.90
8475;DHT22;4274;52.012;8.448;2024-02-21T09:25:33;9.80;99.90
8475;DHT22;4274;52.012;8.448;2024-02-21T09:28:01;9.80;99.90
8475;DHT22;4274;52.012;8.448;2024-02-21T09:30:27;9.80;99.90
8475;DHT22;4274;52.012;8.448;2024-02-21T09:32:53;9.90;99.90
8475;DHT22;4274;52.012;8.448;2024-02-21T09:35:18;10.00;99.90
8475;DHT22;4274;52.012;8.448;2024-02-21T09:37:44;10.10;99.90
8475;DHT22;4274;52.012;8.448;2024-02-21T09:40:10;10.10;99.90
8475;DHT22;4274;52.012;8.448;2024-02-21T09:42:40;10.10;99.90
8475;DHT22;4274;52.012;8.448;2024-02-21T09:45:21;10.10;99.90
8475;DHT22;4274;52.012;8.448;2024-02-21T09:50:26;10.10;99.90
8475;DHT22;4274;52.012;8.448;2024-02-21T09:52:54;10.30;99.90
8475;DHT22;4274;52.012;8.448;2024-02-21T09:55:20;10.40;99.90
8475;DHT22;4274;52.012;8.448;2024-02-21T09:57:46;10.40;99.90
8475;DHT22;4274;52.012;8.448;2024-02-21T10:00:13;10.40;99.90
8475;DHT22;4274;52.012;8.448;2024-02-21T10:02:49;10.40;99.90
8475;DHT22;4274;52.012;8.448;2024-02-21T10:05:16;10.40;99.90
8475;DHT22;4274;52.012;8.448;2024-02-21T10:07:41;10.40;99.90
8475;DHT22;4274;52.012;8.448;2024-02-21T10:10:07;10.50;99.90
8475;DHT22;4274;52.012;8.448;2024-02-21T10:12:33;10.50;99.90
8475;DHT22;4274;52.012;8.448;2024-02-21T10:15:03;10.40;99.90
8475;DHT22;4274;52.012;8.448;2024-02-21T10:17:29;10.40;99.90
8475;DHT22;4274;52.012;8.448;2024-02-21T10:19:55;10.30;99.90
8475;DHT22;4274;52.012;8.448;2024-02-21T10:22:20;10.40;99.90
8475;DHT22;4274;52.012;8.448;2024-02-21T10:24:50;10.40;99.90
8475;DHT22;4274;52.012;8.448;2024-02-21T10:27:16;10.40;99.90
8475;DHT22;4274;52.012;8.448;2024-02-21T10:29:42;10.30;99.90
8475;DHT22;4274;52.012;8.448;2024-02-21T10:32:09;10.30;99.90
8475;DHT22;4274;52.012;8.448;2024-02-21T10:34:36;10.20;99.90
8475;DHT22;4274;52.012;8.448;2024-02-21T10:37:06;10.20;99.90
8475;DHT22;4274;52.012;8.448;2024-02-21T10:39:32;10.20;99.90
8475;DHT22;4274;52.012;8.448;2024-02-21T10:42:03;10.10;99.90
8475;DHT22;4274;52.012;8.448;2024-02-21T10:44:30;10.10;99.90
8475;DHT22;4274;52.012;8.448;2024-02-21T10:46:57;10.10;99.90
8475;DHT22;4274;52.012;8.448;2024-02-21T10:49:24;10.10;99.90
8475;DHT22;4274;52.012;8.448;2024-02-21T10:51:55;10.10;99.90
8475;DHT22;4274;52.012;8.448;2024-02-21T10:54:29;10.00;99.90
8475;DHT22;4274;52.012;8.448;2024-02-21T10:56:57;10.00;99.90
8475;DHT22;4274;52.012;8.448;2024-02-21T10:59:24;10.00;99.90
8475;DHT22;4274;52.012;8.448;2024-02-21T11:01:51;9.90;99.90
8475;DHT22;4274;52.012;8.448;2024-02-21T11:04:17;9.80;99.90
8475;DHT22;4274;52.012;8.448;2024-02-21T11:06:44;9.80;99.90
8475;DHT22;4274;52.012;8.448;2024-02-21T11:09:10;9.80;99.90
8475;DHT22;4274;52.012;8.448;2024-02-21T11:11:40;9.90;99.90
8475;DHT22;4274;52.012;8.448;2024-02-21T11:16:36;9.90;99.90
8475;DHT22;4274;52.012;8.448;2024-02-21T11:19:18;10.00;99.90
8475;DHT22;4274;52.012;8.448;2024-02-21T11:21:44;10.00;99.90
8475;DHT22;4274;52.012;8.448;2024-02-21T11:24:10;10.20;99.90
8475;DHT22;4274;52.012;8.448;2024-02-21T11:26:37;10.30;99.90
8475;DHT22;4274;52.012;8.448;2024-02-21T11:29:03;10.50;99.90
8475;DHT22;4274;52.012;8.448;2024-02-21T11:31:43;10.60;99.90
8475;DHT22;4274;52.012;8.448;2024-02-21T11:34:12;10.60;99.90
8475;DHT22;4274;52.012;8.448;2024-02-21T11:36:49;10.50;99.90
8475;DHT22;4274;52.012;8.448;2024-02-21T11:39:23;10.50;99.90
8475;DHT22;4274;52.012;8.448;2024-02-21T11:42:19;10.40;99.90
8475;DHT22;4274;52.012;8.448;2024-02-21T11:44:45;10.30;99.90
8475;DHT22;4274;52.012;8.448;2024-02-21T11:47:11;10.20;99.90
8475;DHT22;4274;52.012;8.448;2024-02-21T11:49:38;10.20;99.90
8475;DHT22;4274;52.012;8.448;2024-02-21T11:52:07;10.10;99.90
8475;DHT22;4274;52.012;8.448;2024-02-21T11:54:33;10.00;99.90
8475;DHT22;4274;52.012;8.448;2024-02-21T11:57:00;10.00;99.90
8475;DHT22;4274;52.012;8.448;2024-02-21T11:59:26;9.90;99.90
8475;DHT22;4274;52.012;8.448;2024-02-21T12:01:53;9.80;99.90
8475;DHT22;4274;52.012;8.448;2024-02-21T12:04:19;9.80;99.90
8475;DHT22;4274;52.012;8.448;2024-02-21T12:06:46;9.80;99.90
8475;DHT22;4274;52.012;8.448;2024-02-21T12:09:18;9.70;99.90
8475;DHT22;4274;52.012;8.448;2024-02-21T12:11:45;9.70;99.90
8475;DHT22;4274;52.012;8.448;2024-02-21T12:14:15;9.70;99.90
8475;DHT22;4274;52.012;8.448;2024-02-21T12:16:41;9.60;99.90
8475;DHT22;4274;52.012;8.448;2024-02-21T12:19:07;9.60;99.90
8475;DHT22;4274;52.012;8.448;2024-02-21T12:21:35;9.60;99.90
8475;DHT22;4274;52.012;8.448;2024-02-21T12:26:41;9.50;99.90
8475;DHT22;4274;52.012;8.448;2024-02-21T12:29:07;9.50;99.90
8475;DHT22;4274;52.012;8.448;2024-02-21T12:31:36;9.40;99.90
8475;DHT22;4274;52.012;8.448;2024-02-21T12:34:02;9.40;99.90
8475;DHT22;4274;52.012;8.448;2024-02-21T12:36:27;9.40;99.90
8475;DHT22;4274;52.012;8.448;2024-02-21T12:38:53;9.40;99.90
8475;DHT22;4274;52.012;8.448;2024-02-21T12:41:18;9.40;99.90
8475;DHT22;4274;52.012;8.448;2024-02-21T12:43:44;9.50;99.90
8475;DHT22;4274;52.012;8.448;2024-02-21T12:46:09;9.60;99.90
8475;DHT22;4274;52.012;8.448;2024-02-21T12:48:35;9.60;99.90
8475;DHT22;4274;52.012;8.448;2024-02-21T12:51:00;9.70;99.90
8475;DHT22;4274;52.012;8.448;2024-02-21T12:53:26;9.80;99.90
8475;DHT22;4274;52.012;8.448;2024-02-21T12:55:52;10.00;99.90
8475;DHT22;4274;52.012;8.448;2024-02-21T12:58:18;10.10;99.90
8475;DHT22;4274;52.012;8.448;2024-02-21T13:00:44;10.20;99.90
8475;DHT22;4274;52.012;8.448;2024-02-21T13:03:10;10.20;99.90
8475;DHT22;4274;52.012;8.448;2024-02-21T13:05:38;10.10;99.90
8475;DHT22;4274;52.012;8.448;2024-02-21T13:08:05;10.00;99.90
8475;DHT22;4274;52.012;8.448;2024-02-21T13:10:31;10.00;99.90
8475;DHT22;4274;52.012;8.448;2024-02-21T13:12:58;10.00;99.90
8475;DHT22;4274;52.012;8.448;2024-02-21T13:15:24;10.00;99.90
8475;DHT22;4274;52.012;8.448;2024-02-21T13:17:50;9.90;99.90
8475;DHT22;4274;52.012;8.448;2024-02-21T13:20:15;9.90;99.90
8475;DHT22;4274;52.012;8.448;2024-02-21T13:22:41;10.00;99.90
8475;DHT22;4274;52.012;8.448;2024-02-21T13:25:06;10.00;99.90
8475;DHT22;4274;52.012;8.448;2024-02-21T13:27:33;10.10;99.90
8475;DHT22;4274;52.012;8.448;2024-02-21T13:29:59;10.00;99.90
8475;DHT22;4274;52.012;8.448;2024-02-21T13:32:25;10.00;99.90
8475;DHT22;4274;52.012;8.448;2024-02-21T13:34:51;10.00;99.90
8475;DHT22;4274;52.012;8.448;2024-02-21T13:37:18;10.00;99.90
8475;DHT22;4274;52.012;8.448;2024-02-21T13:39:43;10.00;99.90
8475;DHT22;4274;52.012;8.448;2024-02-21T13:42:09;10.00;99.90
8475;DHT22;4274;52.012;8.448;2024-02-21T13:44:34;10.00;99.90
8475;DHT22;4274;52.012;8.448;2024-02-21T13:47:01;10.00;99.90
8475;DHT22;4274;52.012;8.448;2024-02-21T13:49:26;10.00;99.90
8475;DHT22;4274;52.012;8.448;2024-02-21T13:51:52;10.00;99.90
8475;DHT22;4274;52.012;8.448;2024-02-21T13:54:18;9.90;99.90
8475;DHT22;4274;52.012;8.448;2024-02-21T13:56:45;9.90;99.90
8475;DHT22;4274;52.012;8.448;2024-02-21T13:59:12;9.90;99.90
8475;DHT22;4274;52.012;8.448;2024-02-21T14:01:39;9.80;99.90
8475;DHT22;4274;52.012;8.448;2024-02-21T14:04:04;9.80;99.90
8475;DHT22;4274;52.012;8.448;2024-02-21T14:06:30;9.80;99.90
8475;DHT22;4274;52.012;8.448;2024-02-21T14:08:55;9.80;99.90
8475;DHT22;4274;52.012;8.448;2024-02-21T14:11:21;9.80;99.90
8475;DHT22;4274;52.012;8.448;2024-02-21T14:13:47;9.80;99.90
8475;DHT22;4274;52.012;8.448;2024-02-21T14:16:12;9.80;99.90
8475;DHT22;4274;52.012;8.448;2024-02-21T14:18:41;9.80;99.90
8475;DHT22;4274;52.012;8.448;2024-02-21T14:21:08;9.80;99.90
8475;DHT22;4274;52.012;8.448;2024-02-21T14:23:36;9.80;99.90
8475;DHT22;4274;52.012;8.448;2024-02-21T14:26:03;9.80;99.90
8475;DHT22;4274;52.012;8.448;2024-02-21T14:28:28;9.80;99.90
8475;DHT22;4274;52.012;8.448;2024-02-21T14:30:54;9.90;99.90
8475;DHT22;4274;52.012;8.448;2024-02-21T14:33:28;9.90;99.90
8475;DHT22;4274;52.012;8.448;2024-02-21T14:35:55;10.00;99.90
8475;DHT22;4274;52.012;8.448;2024-02-21T14:38:20;10.00;99.90
8475;DHT22;4274;52.012;8.448;2024-02-21T14:40:46;10.10;99.90
8475;DHT22;4274;52.012;8.448;2024-02-21T14:43:11;10.10;99.90
8475;DHT22;4274;52.012;8.448;2024-02-21T14:45:37;10.00;99.90
8475;DHT22;4274;52.012;8.448;2024-02-21T14:48:06;10.00;99.90
8475;DHT22;4274;52.012;8.448;2024-02-21T14:50:32;10.00;99.90
8475;DHT22;4274;52.012;8.448;2024-02-21T14:52:58;10.00;99.90
8475;DHT22;4274;52.012;8.448;2024-02-21T14:55:23;10.00;99.90
8475;DHT22;4274;52.012;8.448;2024-02-21T14:57:49;10.00;99.90
8475;DHT22;4274;52.012;8.448;2024-02-21T15:00:16;10.00;99.90
8475;DHT22;4274;52.012;8.448;2024-02-21T15:02:42;10.00;99.90
8475;DHT22;4274;52.012;8.448;2024-02-21T15:05:08;9.90;99.90
8475;DHT22;4274;52.012;8.448;2024-02-21T15:07:34;9.80;99.90
8475;DHT22;4274;52.012;8.448;2024-02-21T15:10:00;9.80;99.90
8475;DHT22;4274;52.012;8.448;2024-02-21T15:12:26;9.70;99.90
8475;DHT22;4274;52.012;8.448;2024-02-21T15:14:51;9.70;99.90
8475;DHT22;4274;52.012;8.448;2024-02-21T15:17:17;9.70;99.90
8475;DHT22;4274;52.012;8.448;2024-02-21T15:19:44;9.70;99.90
8475;DHT22;4274;52.012;8.448;2024-02-21T15:22:13;9.70;99.90
8475;DHT22;4274;52.012;8.448;2024-02-21T15:24:39;9.70;99.90
8475;DHT22;4274;52.012;8.448;2024-02-21T15:27:06;9.70;99.90
8475;DHT22;4274;52.012;8.448;2024-02-21T15:29:31;9.70;99.90
8475;DHT22;4274;52.012;8.448;2024-02-21T15:31:57;9.70;99.90
8475;DHT22;4274;52.012;8.448;2024-02-21T15:34:23;9.60;99.90
8475;DHT22;4274;52.012;8.448;2024-02-21T15:36:48;9.60;99.90
8475;DHT22;4274;52.012;8.448;2024-02-21T15:39:14;9.60;99.90
8475;DHT22;4274;52.012;8.448;2024-02-21T15:41:40;9.60;99.90
8475;DHT22;4274;52.012;8.448;2024-02-21T15:44:05;9.60;99.90
8475;DHT22;4274;52.012;8.448;2024-02-21T15:46:32;9.50;99.90
8475;DHT22;4274;52.012;8.448;2024-02-21T15:49:00;9.50;99.90
8475;DHT22;4274;52.012;8.448;2024-02-21T15:51:25;9.50;99.90
8475;DHT22;4274;52.012;8.448;2024-02-21T15:53:51;9.40;99.90
8475;DHT22;4274;52.012;8.448;2024-02-21T15:56:17;9.40;99.90
8475;DHT22;4274;52.012;8.448;2024-02-21T15:58:43;9.40;99.90
8475;DHT22;4274;52.012;8.448;2024-02-21T16:01:09;9.40;99.90
8475;DHT22;4274;52.012;8.448;2024-02-21T16:03:37;9.30;99.90
8475;DHT22;4274;52.012;8.448;2024-02-21T16:06:03;9.30;99.90
8475;DHT22;4274;52.012;8.448;2024-02-21T16:08:29;9.30;99.90
8475;DHT22;4274;52.012;8.448;2024-02-21T16:10:54;9.30;99.90
8475;DHT22;4274;52.012;8.448;2024-02-21T16:13:21;9.20;99.90
8475;DHT22;4274;52.012;8.448;2024-02-21T16:15:47;9.20;99.90
8475;DHT22;4274;52.012;8.448;2024-02-21T16:18:14;9.20;99.90
8475;DHT22;4274;52.012;8.448;2024-02-21T16:20:46;9.20;99.90
8475;DHT22;4274;52.012;8.448;2024-02-21T16:23:13;9.10;99.90
8475;DHT22;4274;52.012;8.448;2024-02-21T16:25:40;9.10;99.90
8475;DHT22;4274;52.012;8.448;2024-02-21T16:28:05;9.10;99.90
8475;DHT22;4274;52.012;8.448;2024-02-21T16:30:32;9.10;99.90
8475;DHT22;4274;52.012;8.448;2024-02-21T16:32:58;9.00;99.90
8475;DHT22;4274;52.012;8.448;2024-02-21T16:35:24;9.00;99.90
8475;DHT22;4274;52.012;8.448;2024-02-21T16:37:53;9.00;99.90
8475;DHT22;4274;52.012;8.448;2024-02-21T16:40:19;9.00;99.90
8475;DHT22;4274;52.012;8.448;2024-02-21T16:42:45;8.90;99.90